Wetterdaten: Woche 12.05.14 - 18.05.14 (KW20)
Datum Zeit Temp. A. Feuchte A. Luftdruck Regen Wind Richtung Taupunkt Windchill Windben
12.05.2014 00:00 9,3 C 82 % 1008,0 hPa 0,3 l/m 8,2 km/h N 6,3 C 7,5 C 24,5 km/h
12.05.2014 01:00 10,8 C 75 % 1009,2 hPa 0,0 l/m 14,6 km/h N 6,6 C 6,4 C 36,2 km/h
12.05.2014 02:00 11,1 C 71 % 1009,3 hPa 0,0 l/m 17,4 km/h N 6,0 C 5,6 C 39,4 km/h
12.05.2014 03:00 10,6 C 72 % 1009,3 hPa 0,0 l/m 13,9 km/h N 5,8 C 6,4 C 31,4 km/h
12.05.2014 04:00 10,5 C 72 % 1010,0 hPa 0,0 l/m 12,8 km/h N 5,7 C 6,7 C 31,0 km/h
12.05.2014 05:00 10,1 C 74 % 1010,5 hPa 0,0 l/m 10,1 km/h N 5,7 C 7,7 C 27,4 km/h
12.05.2014 06:00 10,2 C 73 % 1010,9 hPa 0,0 l/m 11,4 km/h N 5,5 C 7,2 C 32,2 km/h
12.05.2014 07:00 11,0 C 69 % 1011,6 hPa 0,0 l/m 10,2 km/h N 5,5 C 8,7 C 32,6 km/h
12.05.2014 08:00 12,1 C 65 % 1012,5 hPa 0,0 l/m 10,9 km/h N 5,7 C 9,5 C 28,1 km/h
12.05.2014 09:00 12,0 C 66 % 1013,2 hPa 0,0 l/m 8,8 km/h N 5,9 C 10,6 C 24,1 km/h
12.05.2014 10:00 13,0 C 63 % 1013,3 hPa 0,0 l/m 8,6 km/h N 6,1 C 11,8 C 26,5 km/h
12.05.2014 11:00 14,3 C 55 % 1013,4 hPa 0,0 l/m 11,3 km/h N 5,4 C 11,8 C 31,0 km/h
12.05.2014 12:00 15,0 C 51 % 1013,4 hPa 0,0 l/m 12,1 km/h N 5,0 C 12,2 C 28,1 km/h
12.05.2014 13:00 15,6 C 51 % 1013,0 hPa 0,0 l/m 9,4 km/h N 5,5 C 14,1 C 25,3 km/h
12.05.2014 14:00 16,3 C 48 % 1012,4 hPa 0,0 l/m 7,7 km/h N 5,2 C 15,5 C 20,9 km/h
12.05.2014 15:00 16,9 C 46 % 1011,7 hPa 0,0 l/m 5,1 km/h N 5,2 C 16,8 C 20,9 km/h
12.05.2014 16:00 17,1 C 44 % 1011,3 hPa 0,0 l/m 7,9 km/h N 4,7 C 16,3 C 23,7 km/h
12.05.2014 17:00 16,3 C 48 % 1011,8 hPa 0,0 l/m 8,5 km/h N 5,2 C 15,2 C 26,9 km/h
12.05.2014 18:00 15,8 C 49 % 1012,2 hPa 0,0 l/m 6,9 km/h N 5,1 C 15,2 C 22,1 km/h
12.05.2014 19:00 13,8 C 53 % 1012,3 hPa 0,0 l/m 3,5 km/h N 4,4 C 13,8 C 22,1 km/h
12.05.2014 20:00 12,7 C 55 % 1012,5 hPa 0,0 l/m 1,4 km/h N 3,9 C 12,7 C 12,5 km/h
12.05.2014 21:00 11,9 C 59 % 1012,8 hPa 0,0 l/m 0,8 km/h N 4,0 C 11,9 C 8,9 km/h
12.05.2014 22:00 10,8 C 64 % 1013,1 hPa 0,0 l/m 0,2 km/h N 4,2 C 10,8 C 4,0 km/h
12.05.2014 23:00 9,9 C 68 % 1013,4 hPa 0,0 l/m 0,1 km/h N 4,2 C 9,9 C 2,4 km/h
13.05.2014 00:00 9,4 C 72 % 1013,4 hPa 0,0 l/m 0,1 km/h N 4,5 C 9,4 C 1,6 km/h
13.05.2014 01:00 8,6 C 75 % 1013,2 hPa 0,0 l/m 0,0 km/h N 4,5 C 8,6 C 0,4 km/h
13.05.2014 02:00 8,3 C 78 % 1013,3 hPa 0,0 l/m 0,1 km/h N 4,6 C 8,3 C 1,2 km/h
13.05.2014 03:00 8,4 C 78 % 1013,3 hPa 0,0 l/m 0,5 km/h N 4,9 C 8,4 C 9,3 km/h
13.05.2014 04:00 9,4 C 74 % 1013,4 hPa 0,0 l/m 0,1 km/h N 5,0 C 9,4 C 2,0 km/h
13.05.2014 05:00 9,3 C 74 % 1013,6 hPa 0,0 l/m 0,9 km/h N 4,9 C 9,3 C 6,4 km/h
13.05.2014 06:00 10,3 C 70 % 1013,5 hPa 0,0 l/m 4,1 km/h N 5,1 C 10,3 C 15,7 km/h
13.05.2014 07:00 10,6 C 69 % 1014,0 hPa 0,0 l/m 3,6 km/h N 5,2 C 10,6 C 13,7 km/h
13.05.2014 08:00 11,0 C 68 % 1014,1 hPa 0,0 l/m 6,6 km/h N 5,2 C 10,4 C 18,9 km/h
13.05.2014 09:00 11,3 C 68 % 1014,1 hPa 0,0 l/m 4,6 km/h N 5,5 C 11,2 C 18,1 km/h
13.05.2014 10:00 11,7 C 68 % 1014,5 hPa 0,0 l/m 3,5 km/h N 6,0 C 11,7 C 12,9 km/h
13.05.2014 11:00 12,0 C 70 % 1014,8 hPa 0,0 l/m 2,9 km/h N 6,7 C 12,0 C 12,9 km/h
13.05.2014 12:00 12,3 C 69 % 1014,7 hPa 0,0 l/m 3,3 km/h N 6,8 C 12,3 C 14,5 km/h
13.05.2014 13:00 13,0 C 67 % 1014,1 hPa 0,0 l/m 3,0 km/h N 6,9 C 13,0 C 12,5 km/h
13.05.2014 14:00 13,7 C 62 % 1013,8 hPa 0,0 l/m 2,5 km/h N 6,5 C 13,7 C 10,9 km/h
13.05.2014 15:00 13,6 C 64 % 1013,8 hPa 0,0 l/m 3,2 km/h N 6,8 C 13,5 C 16,1 km/h
13.05.2014 16:00 11,2 C 76 % 1013,8 hPa 0,0 l/m 3,1 km/h N 7,1 C 11,2 C 11,3 km/h
13.05.2014 17:00 12,4 C 71 % 1013,7 hPa 0,0 l/m 1,2 km/h N 7,2 C 12,4 C 5,6 km/h
13.05.2014 18:00 12,9 C 67 % 1013,6 hPa 0,0 l/m 0,8 km/h N 6,9 C 12,9 C 6,8 km/h
13.05.2014 19:00 12,1 C 71 % 1014,0 hPa 0,0 l/m 0,9 km/h N 6,9 C 12,1 C 5,6 km/h
13.05.2014 20:00 11,7 C 73 % 1014,1 hPa 0,0 l/m 5,2 km/h N 6,9 C 10,9 C 15,3 km/h
13.05.2014 21:00 10,9 C 76 % 1015,3 hPa 0,0 l/m 5,4 km/h N 6,8 C 10,6 C 20,5 km/h
13.05.2014 22:00 9,9 C 81 % 1015,4 hPa 0,3 l/m 3,8 km/h N 6,7 C 9,9 C 14,1 km/h
13.05.2014 23:00 9,6 C 80 % 1015,3 hPa 0,0 l/m 6,8 km/h N 6,4 C 8,8 C 20,1 km/h
14.05.2014 00:00 9,4 C 79 % 1015,5 hPa 0,0 l/m 9,1 km/h N 5,8 C 7,5 C 22,9 km/h
14.05.2014 01:00 9,2 C 77 % 1015,6 hPa 0,0 l/m 7,6 km/h N 5,4 C 8,2 C 21,7 km/h
14.05.2014 02:00 9,5 C 78 % 1015,5 hPa 0,0 l/m 5,8 km/h N 5,7 C 9,4 C 19,3 km/h
14.05.2014 03:00 9,6 C 79 % 1015,9 hPa 0,0 l/m 8,7 km/h N 6,0 C 8,0 C 22,9 km/h
14.05.2014 04:00 9,6 C 80 % 1016,3 hPa 0,0 l/m 8,9 km/h N 6,2 C 7,9 C 22,5 km/h
14.05.2014 05:00 9,4 C 80 % 1016,2 hPa 0,0 l/m 10,3 km/h N 6,0 C 6,7 C 27,4 km/h
14.05.2014 06:00 9,4 C 81 % 1016,4 hPa 0,0 l/m 9,8 km/h N 6,2 C 7,0 C 24,9 km/h
14.05.2014 07:00 10,0 C 79 % 1016,7 hPa 0,0 l/m 12,6 km/h N 6,5 C 6,3 C 29,4 km/h
14.05.2014 08:00 11,0 C 77 % 1017,1 hPa 0,0 l/m 11,5 km/h N 7,2 C 7,9 C 28,6 km/h
14.05.2014 09:00 11,9 C 75 % 1017,5 hPa 0,0 l/m 12,3 km/h N 7,6 C 8,6 C 31,0 km/h
14.05.2014 10:00 12,5 C 73 % 1017,7 hPa 0,0 l/m 12,3 km/h N 7,8 C 9,3 C 29,4 km/h
14.05.2014 11:00 13,7 C 61 % 1017,9 hPa 0,0 l/m 13,8 km/h N 6,4 C 10,1 C 30,6 km/h
14.05.2014 12:00 14,8 C 56 % 1017,8 hPa 0,0 l/m 14,2 km/h N 6,1 C 11,3 C 33,8 km/h
14.05.2014 13:00 13,7 C 60 % 1018,1 hPa 0,3 l/m 13,0 km/h N 6,1 C 10,4 C 29,4 km/h
14.05.2014 14:00 13,9 C 55 % 1018,4 hPa 0,0 l/m 14,0 km/h N 4,8 C 10,3 C 33,4 km/h
14.05.2014 15:00 14,6 C 49 % 1018,4 hPa 0,0 l/m 15,5 km/h N 3,9 C 10,6 C 38,2 km/h
14.05.2014 16:00 14,1 C 47 % 1018,8 hPa 0,0 l/m 17,2 km/h N 2,9 C 9,4 C 43,8 km/h
14.05.2014 17:00 13,8 C 46 % 1019,3 hPa 0,0 l/m 14,7 km/h N 2,5 C 9,9 C 35,0 km/h
14.05.2014 18:00 13,2 C 47 % 1019,6 hPa 0,0 l/m 12,9 km/h N 2,1 C 9,9 C 37,0 km/h
14.05.2014 19:00 12,3 C 50 % 1020,0 hPa 0,0 l/m 12,1 km/h N 2,1 C 9,1 C 37,0 km/h
14.05.2014 20:00 11,4 C 53 % 1020,5 hPa 0,0 l/m 11,3 km/h N 2,1 C 8,6 C 32,6 km/h
14.05.2014 21:00 10,9 C 56 % 1021,0 hPa 0,0 l/m 11,3 km/h N 2,5 C 8,0 C 30,2 km/h
14.05.2014 22:00 10,4 C 59 % 1021,2 hPa 0,0 l/m 11,2 km/h N 2,8 C 7,4 C 30,6 km/h
14.05.2014 23:00 9,9 C 61 % 1021,3 hPa 0,0 l/m 12,3 km/h N 2,7 C 6,2 C 30,6 km/h
15.05.2014 00:00 9,4 C 64 % 1021,3 hPa 0,0 l/m 12,5 km/h N 2,9 C 5,6 C 30,6 km/h
15.05.2014 01:00 9,2 C 66 % 1021,3 hPa 0,0 l/m 13,1 km/h N 3,1 C 5,1 C 33,0 km/h
15.05.2014 02:00 8,9 C 67 % 1021,0 hPa 0,0 l/m 13,0 km/h N 3,2 C 4,8 C 32,2 km/h
15.05.2014 03:00 8,5 C 69 % 1020,9 hPa 0,0 l/m 14,0 km/h N 3,1 C 3,8 C 32,6 km/h
15.05.2014 04:00 8,2 C 71 % 1021,1 hPa 0,0 l/m 12,9 km/h N 3,2 C 4,0 C 35,0 km/h
15.05.2014 05:00 8,0 C 72 % 1021,1 hPa 0,0 l/m 14,3 km/h N 3,3 C 3,0 C 35,0 km/h
15.05.2014 06:00 8,1 C 72 % 1021,1 hPa 0,0 l/m 15,4 km/h N 3,4 C 2,6 C 39,0 km/h
15.05.2014 07:00 8,3 C 72 % 1021,0 hPa 0,0 l/m 16,7 km/h N 3,5 C 2,3 C 41,0 km/h
15.05.2014 08:00 8,2 C 76 % 1021,3 hPa 0,0 l/m 16,1 km/h N 4,1 C 2,5 C 42,7 km/h
15.05.2014 09:00 7,8 C 79 % 1021,2 hPa 0,3 l/m 15,3 km/h N 4,3 C 2,3 C 37,8 km/h
15.05.2014 10:00 7,4 C 83 % 1021,0 hPa 2,6 l/m 15,3 km/h N 4,8 C 1,9 C 38,6 km/h
15.05.2014 11:00 7,6 C 84 % 1020,7 hPa 2,6 l/m 14,5 km/h N 5,1 C 2,5 C 39,4 km/h
15.05.2014 12:00 8,0 C 84 % 1020,0 hPa 0,3 l/m 16,1 km/h N 5,4 C 2,2 C 42,7 km/h
15.05.2014 13:00 8,3 C 84 % 1019,8 hPa 1,3 l/m 18,6 km/h N 5,7 C 1,5 C 41,5 km/h
15.05.2014 14:00 8,5 C 84 % 1019,5 hPa 0,3 l/m 19,5 km/h N 6,0 C 1,6 C 38,2 km/h
15.05.2014 15:00 8,9 C 84 % 1019,0 hPa 0,5 l/m 20,8 km/h N 6,3 C 1,5 C 43,9 km/h
15.05.2014 16:00 9,3 C 84 % 1018,8 hPa 1,0 l/m 19,7 km/h N 6,7 C 2,5 C 41,8 km/h
15.05.2014 17:00 9,6 C 84 % 1018,6 hPa 1,6 l/m 17,9 km/h N 7,0 C 3,5 C 39,0 km/h
15.05.2014 18:00 9,7 C 84 % 1018,8 hPa 1,8 l/m 15,1 km/h N 7,2 C 4,8 C 33,4 km/h
15.05.2014 19:00 9,8 C 84 % 1018,6 hPa 2,1 l/m 16,2 km/h N 7,2 C 4,4 C 36,2 km/h
15.05.2014 20:00 9,8 C 84 % 1018,4 hPa 1,8 l/m 17,4 km/h N 7,1 C 3,9 C 41,0 km/h
15.05.2014 21:00 9,6 C 84 % 1018,3 hPa 1,8 l/m 16,4 km/h N 7,0 C 4,1 C 40,3 km/h
15.05.2014 22:00 9,8 C 84 % 1018,1 hPa 1,3 l/m 15,5 km/h N 7,1 C 4,6 C 36,6 km/h
15.05.2014 23:00 9,6 C 84 % 1017,9 hPa 2,3 l/m 15,4 km/h N 7,1 C 4,5 C 33,8 km/h
16.05.2014 00:00 9,8 C 84 % 1016,8 hPa 0,3 l/m 17,3 km/h N 7,2 C 4,0 C 39,4 km/h
16.05.2014 01:00 9,8 C 84 % 1016,0 hPa 1,3 l/m 19,9 km/h N 7,2 C 3,0 C 41,4 km/h
16.05.2014 02:00 9,8 C 84 % 1015,4 hPa 1,8 l/m 16,5 km/h N 7,2 C 4,3 C 39,0 km/h
16.05.2014 03:00 9,8 C 84 % 1014,7 hPa 1,3 l/m 16,1 km/h N 7,3 C 4,4 C 37,0 km/h
16.05.2014 04:00 9,8 C 84 % 1014,2 hPa 3,4 l/m 12,5 km/h N 7,2 C 6,1 C 33,8 km/h
16.05.2014 05:00 9,3 C 84 % 1014,2 hPa 3,1 l/m 11,9 km/h N 6,7 C 5,8 C 33,0 km/h
16.05.2014 06:00 9,0 C 84 % 1014,3 hPa 5,5 l/m 11,5 km/h N 6,5 C 5,7 C 30,2 km/h
16.05.2014 07:00 8,8 C 83 % 1014,7 hPa 4,2 l/m 11,1 km/h N 6,1 C 5,6 C 29,4 km/h
16.05.2014 08:00 8,7 C 84 % 1014,8 hPa 3,6 l/m 11,3 km/h N 6,1 C 5,4 C 33,8 km/h
16.05.2014 09:00 8,7 C 84 % 1014,7 hPa 2,1 l/m 9,8 km/h N 6,1 C 6,3 C 26,5 km/h
16.05.2014 10:00 8,6 C 83 % 1014,8 hPa 3,1 l/m 11,7 km/h N 5,9 C 5,2 C 30,6 km/h
16.05.2014 11:00 8,7 C 84 % 1015,2 hPa 1,0 l/m 11,4 km/h N 6,1 C 5,4 C 25,4 km/h
16.05.2014 12:00 8,7 C 84 % 1015,3 hPa 0,3 l/m 10,0 km/h N 6,2 C 6,2 C 27,8 km/h
16.05.2014 13:00 8,9 C 85 % 1015,5 hPa 0,0 l/m 11,3 km/h N 6,5 C 5,7 C 26,6 km/h
16.05.2014 14:00 8,9 C 85 % 1015,6 hPa 0,8 l/m 10,3 km/h N 6,5 C 6,2 C 25,8 km/h
16.05.2014 15:00 8,8 C 84 % 1015,9 hPa 1,0 l/m 11,9 km/h N 6,3 C 5,2 C 25,7 km/h
16.05.2014 16:00 8,7 C 85 % 1016,3 hPa 0,8 l/m 12,6 km/h N 6,3 C 4,8 C 28,2 km/h
16.05.2014 17:00 8,8 C 85 % 1016,4 hPa 0,0 l/m 13,6 km/h N 6,3 C 4,3 C 30,2 km/h
16.05.2014 18:00 8,7 C 85 % 1016,8 hPa 1,0 l/m 15,1 km/h N 6,2 C 3,5 C 34,2 km/h
16.05.2014 19:00 8,6 C 84 % 1016,9 hPa 0,5 l/m 12,5 km/h N 6,0 C 4,7 C 27,8 km/h
16.05.2014 20:00 8,6 C 85 % 1017,0 hPa 0,8 l/m 10,8 km/h N 6,2 C 5,5 C 26,5 km/h
16.05.2014 21:00 8,4 C 85 % 1017,3 hPa 0,5 l/m 9,6 km/h N 6,0 C 6,2 C 26,6 km/h
16.05.2014 22:00 8,6 C 85 % 1017,0 hPa 0,8 l/m 14,7 km/h N 6,2 C 3,7 C 32,6 km/h
16.05.2014 23:00 8,4 C 84 % 1016,9 hPa 0,3 l/m 12,2 km/h N 5,9 C 4,6 C 29,4 km/h
17.05.2014 00:00 8,4 C 85 % 1016,8 hPa 0,3 l/m 10,8 km/h N 5,9 C 5,5 C 25,0 km/h
17.05.2014 01:00 8,3 C 84 % 1016,5 hPa 0,5 l/m 9,9 km/h N 5,8 C 5,8 C 25,3 km/h
17.05.2014 02:00 8,3 C 84 % 1015,9 hPa 0,3 l/m 9,8 km/h N 5,8 C 6,0 C 26,5 km/h
17.05.2014 03:00 8,3 C 84 % 1015,5 hPa 0,3 l/m 10,7 km/h N 5,8 C 5,4 C 27,0 km/h
17.05.2014 04:00 8,4 C 84 % 1015,1 hPa 1,0 l/m 11,9 km/h N 5,8 C 4,7 C 30,6 km/h
17.05.2014 05:00 8,6 C 85 % 1015,1 hPa 0,3 l/m 12,5 km/h N 6,1 C 4,6 C 29,8 km/h
17.05.2014 06:00 8,7 C 84 % 1015,2 hPa 0,5 l/m 10,0 km/h N 6,2 C 6,2 C 28,2 km/h
17.05.2014 07:00 8,9 C 84 % 1015,4 hPa 0,3 l/m 10,7 km/h N 6,4 C 6,0 C 28,2 km/h
17.05.2014 08:00 9,0 C 84 % 1015,4 hPa 0,5 l/m 10,2 km/h N 6,5 C 6,4 C 24,5 km/h
17.05.2014 09:00 9,1 C 84 % 1015,4 hPa 0,3 l/m 11,5 km/h N 6,6 C 5,8 C 26,9 km/h
17.05.2014 10:00 9,6 C 85 % 1015,3 hPa 0,0 l/m 12,7 km/h N 7,2 C 5,6 C 31,8 km/h
17.05.2014 11:00 10,6 C 83 % 1015,0 hPa 0,0 l/m 14,2 km/h N 7,9 C 6,3 C 32,6 km/h
17.05.2014 12:00 11,8 C 81 % 1014,8 hPa 0,0 l/m 12,9 km/h N 8,6 C 8,2 C 33,4 km/h
17.05.2014 13:00 13,0 C 76 % 1014,6 hPa 0,0 l/m 18,6 km/h N 8,9 C 7,6 C 39,8 km/h
17.05.2014 14:00 12,4 C 76 % 1014,7 hPa 0,0 l/m 16,2 km/h N 8,4 C 7,7 C 35,0 km/h
17.05.2014 15:00 12,7 C 75 % 1014,3 hPa 0,0 l/m 10,9 km/h N 8,4 C 10,2 C 34,6 km/h
17.05.2014 16:00 12,4 C 76 % 1014,3 hPa 0,0 l/m 11,8 km/h N 8,3 C 9,4 C 35,0 km/h
17.05.2014 17:00 11,6 C 79 % 1014,3 hPa 0,0 l/m 15,7 km/h N 8,0 C 6,8 C 33,8 km/h
17.05.2014 18:00 11,2 C 81 % 1014,3 hPa 0,0 l/m 12,9 km/h N 8,0 C 7,5 C 29,8 km/h
17.05.2014 19:00 11,2 C 80 % 1014,4 hPa 0,0 l/m 7,7 km/h N 7,9 C 10,0 C 24,5 km/h
17.05.2014 20:00 11,0 C 81 % 1014,3 hPa 0,0 l/m 6,4 km/h N 7,9 C 10,8 C 23,3 km/h
17.05.2014 21:00 10,9 C 81 % 1014,3 hPa 0,0 l/m 8,2 km/h N 7,9 C 9,7 C 23,7 km/h
17.05.2014 22:00 10,9 C 81 % 1013,9 hPa 0,0 l/m 8,1 km/h N 7,7 C 9,7 C 25,3 km/h
17.05.2014 23:00 10,9 C 81 % 1013,5 hPa 0,0 l/m 6,9 km/h N 7,7 C 10,2 C 22,9 km/h
18.05.2014 00:00 10,9 C 81 % 1013,1 hPa 0,0 l/m 4,4 km/h N 7,7 C 10,8 C 20,9 km/h
18.05.2014 01:00 10,9 C 81 % 1013,1 hPa 0,0 l/m 2,0 km/h N 7,7 C 10,9 C 12,5 km/h
18.05.2014 02:00 10,5 C 83 % 1013,0 hPa 0,5 l/m 1,3 km/h N 7,8 C 10,5 C 10,5 km/h
18.05.2014 03:00 10,3 C 84 % 1012,9 hPa 0,5 l/m 0,2 km/h N 7,7 C 10,3 C 3,6 km/h
18.05.2014 04:00 10,0 C 84 % 1012,9 hPa 1,6 l/m 0,4 km/h N 7,4 C 10,0 C 4,8 km/h
18.05.2014 05:00 9,8 C 84 % 1012,7 hPa 0,0 l/m 0,0 km/h N 7,2 C 9,8 C 0,4 km/h
18.05.2014 06:00 9,7 C 83 % 1012,6 hPa 0,0 l/m 0,0 km/h N 7,0 C 9,7 C 0,0 km/h
18.05.2014 07:00 10,3 C 82 % 1012,7 hPa 0,0 l/m 0,1 km/h N 7,3 C 10,3 C 2,4 km/h
18.05.2014 08:00 11,3 C 82 % 1012,8 hPa 0,0 l/m 0,4 km/h N 8,2 C 11,3 C 4,0 km/h
18.05.2014 09:00 11,9 C 84 % 1013,0 hPa 0,0 l/m 0,2 km/h N 9,2 C 11,9 C 3,6 km/h
18.05.2014 10:00 12,1 C 85 % 1013,4 hPa 0,5 l/m 2,2 km/h N 9,5 C 12,1 C 8,9 km/h
18.05.2014 11:00 11,8 C 84 % 1013,8 hPa 0,5 l/m 1,5 km/h N 9,1 C 11,8 C 8,8 km/h
18.05.2014 12:00 12,1 C 83 % 1014,1 hPa 0,8 l/m 2,0 km/h N 9,3 C 12,1 C 7,6 km/h
18.05.2014 13:00 12,3 C 82 % 1014,4 hPa 0,3 l/m 1,6 km/h N 9,3 C 12,3 C 7,2 km/h
18.05.2014 14:00 12,5 C 82 % 1014,4 hPa 0,3 l/m 1,1 km/h N 9,5 C 12,5 C 4,8 km/h
18.05.2014 15:00 12,9 C 82 % 1014,4 hPa 0,0 l/m 0,5 km/h N 9,9 C 12,9 C 2,4 km/h
18.05.2014 16:00 13,6 C 83 % 1014,1 hPa 0,0 l/m 0,9 km/h N 10,7 C 13,6 C 4,4 km/h
18.05.2014 17:00 14,6 C 84 % 1013,8 hPa 0,0 l/m 2,3 km/h N 11,9 C 14,6 C 8,8 km/h
18.05.2014 18:00 14,8 C 81 % 1013,8 hPa 0,0 l/m 2,2 km/h N 11,6 C 14,8 C 6,8 km/h
18.05.2014 19:00 14,5 C 82 % 1014,0 hPa 0,0 l/m 0,4 km/h N 11,4 C 14,5 C 4,0 km/h
18.05.2014 20:00 14,0 C 83 % 1014,0 hPa 0,0 l/m 0,3 km/h N 11,1 C 14,0 C 2,0 km/h
18.05.2014 21:00 13,1 C 84 % 1014,4 hPa 0,0 l/m 0,0 km/h N 10,5 C 13,1 C 0,4 km/h
18.05.2014 22:00 12,7 C 84 % 1014,4 hPa 0,3 l/m 0,0 km/h N 10,1 C 12,7 C 0,0 km/h
18.05.2014 23:00 12,6 C 83 % 1014,0 hPa 0,3 l/m 0,1 km/h N 9,8 C 12,6 C 0,8 km/h
Min-Datum _ 15.05.14 12.05.14 12.05.14 - 12.05.14 - 14.05.14 15.05.14 12.05.14
_ Min-Zeit 10:30 15:45 00:00 - 21:45 - 17:30 13:45 21:45
Minimum _ 7,4 C 42 % 1007,7 hPa - 0,0 km/h - 1,4 C 0,9 C 0,0 km/h
Max-Datum _ 12.05.14 16.05.14 15.05.14 16.05.14 15.05.14 - 18.05.14 12.05.14 15.05.14
_ Max-Zeit 16:30 03:30 08:30 06:15 16:00 - 17:45 16:15 15:15
Maximum _ 17,5 C 85 % 1021,5 hPa 5,5 l/m 22,5 km/h
N
- 12,0 C 17,4 C 49,9 km/h
N
Durchschnitt _ 10,8 C 75 % 1015,4 hPa #69,4 l/m 9,1 km/h N 6,3 C 8,3 C 24,1 km/h